sensor_id;sensor_type;location;lat;lon;timestamp;P1;durP1;ratioP1;P2;durP2;ratioP2
8562;SDS011;16392;52.508;13.468;2023-02-28T00:00:00;335.57;;;63.10;;
8562;SDS011;16392;52.508;13.468;2023-02-28T00:02:33;337.50;;;63.47;;
8562;SDS011;16392;52.508;13.468;2023-02-28T00:05:00;335.63;;;63.00;;
8562;SDS011;16392;52.508;13.468;2023-02-28T00:07:28;336.87;;;66.60;;
8562;SDS011;16392;52.508;13.468;2023-02-28T00:09:56;338.50;;;64.33;;
8562;SDS011;16392;52.508;13.468;2023-02-28T00:12:23;335.23;;;62.17;;
8562;SDS011;16392;52.508;13.468;2023-02-28T00:14:50;336.87;;;64.63;;
8562;SDS011;16392;52.508;13.468;2023-02-28T00:17:17;338.33;;;63.87;;
8562;SDS011;16392;52.508;13.468;2023-02-28T00:19:46;336.83;;;61.67;;
8562;SDS011;16392;52.508;13.468;2023-02-28T00:22:15;334.17;;;62.37;;
8562;SDS011;16392;52.508;13.468;2023-02-28T00:24:43;343.57;;;79.47;;
8562;SDS011;16392;52.508;13.468;2023-02-28T00:27:11;342.57;;;69.43;;
8562;SDS011;16392;52.508;13.468;2023-02-28T00:29:37;334.40;;;62.37;;
8562;SDS011;16392;52.508;13.468;2023-02-28T00:32:05;338.33;;;65.23;;
8562;SDS011;16392;52.508;13.468;2023-02-28T00:34:32;336.13;;;63.17;;
8562;SDS011;16392;52.508;13.468;2023-02-28T00:37:03;335.43;;;61.40;;
8562;SDS011;16392;52.508;13.468;2023-02-28T00:39:32;337.30;;;61.73;;
8562;SDS011;16392;52.508;13.468;2023-02-28T00:41:59;336.50;;;62.43;;
8562;SDS011;16392;52.508;13.468;2023-02-28T00:44:28;336.10;;;62.53;;
8562;SDS011;16392;52.508;13.468;2023-02-28T00:46:55;342.67;;;78.43;;
8562;SDS011;16392;52.508;13.468;2023-02-28T00:49:22;336.43;;;65.07;;
8562;SDS011;16392;52.508;13.468;2023-02-28T00:51:49;336.30;;;64.63;;
8562;SDS011;16392;52.508;13.468;2023-02-28T00:54:16;337.90;;;62.00;;
8562;SDS011;16392;52.508;13.468;2023-02-28T00:56:42;333.93;;;62.93;;
8562;SDS011;16392;52.508;13.468;2023-02-28T00:59:11;339.63;;;65.73;;
8562;SDS011;16392;52.508;13.468;2023-02-28T01:01:39;337.80;;;64.33;;
8562;SDS011;16392;52.508;13.468;2023-02-28T01:04:06;339.77;;;69.70;;
8562;SDS011;16392;52.508;13.468;2023-02-28T01:06:33;338.33;;;65.07;;
8562;SDS011;16392;52.508;13.468;2023-02-28T01:09:00;336.83;;;64.27;;
8562;SDS011;16392;52.508;13.468;2023-02-28T01:11:28;335.10;;;63.10;;
8562;SDS011;16392;52.508;13.468;2023-02-28T01:13:55;337.30;;;64.37;;
8562;SDS011;16392;52.508;13.468;2023-02-28T01:16:21;335.30;;;63.80;;
8562;SDS011;16392;52.508;13.468;2023-02-28T01:18:49;337.50;;;63.23;;
8562;SDS011;16392;52.508;13.468;2023-02-28T01:21:17;336.30;;;63.57;;
8562;SDS011;16392;52.508;13.468;2023-02-28T01:23:45;337.53;;;64.70;;
8562;SDS011;16392;52.508;13.468;2023-02-28T01:26:14;341.77;;;71.80;;
8562;SDS011;16392;52.508;13.468;2023-02-28T01:28:42;335.67;;;63.07;;
8562;SDS011;16392;52.508;13.468;2023-02-28T01:31:09;334.37;;;63.43;;
8562;SDS011;16392;52.508;13.468;2023-02-28T01:33:36;331.80;;;62.33;;
8562;SDS011;16392;52.508;13.468;2023-02-28T01:36:05;332.90;;;65.60;;
8562;SDS011;16392;52.508;13.468;2023-02-28T01:38:35;332.60;;;63.23;;
8562;SDS011;16392;52.508;13.468;2023-02-28T01:41:01;330.80;;;61.87;;
8562;SDS011;16392;52.508;13.468;2023-02-28T01:43:52;331.70;;;62.63;;
8562;SDS011;16392;52.508;13.468;2023-02-28T01:46:21;329.80;;;63.47;;
8562;SDS011;16392;52.508;13.468;2023-02-28T01:48:49;329.03;;;62.17;;
8562;SDS011;16392;52.508;13.468;2023-02-28T01:51:18;332.17;;;63.10;;
8562;SDS011;16392;52.508;13.468;2023-02-28T01:53:49;328.90;;;63.13;;
8562;SDS011;16392;52.508;13.468;2023-02-28T01:56:20;328.90;;;60.73;;
8562;SDS011;16392;52.508;13.468;2023-02-28T01:58:52;327.17;;;63.13;;
8562;SDS011;16392;52.508;13.468;2023-02-28T02:01:21;328.90;;;65.40;;
8562;SDS011;16392;52.508;13.468;2023-02-28T02:03:49;328.90;;;61.47;;
8562;SDS011;16392;52.508;13.468;2023-02-28T02:06:20;324.83;;;62.60;;
8562;SDS011;16392;52.508;13.468;2023-02-28T02:08:48;327.10;;;62.33;;
8562;SDS011;16392;52.508;13.468;2023-02-28T02:11:15;327.73;;;62.50;;
8562;SDS011;16392;52.508;13.468;2023-02-28T02:13:55;325.77;;;62.47;;
8562;SDS011;16392;52.508;13.468;2023-02-28T02:16:36;321.27;;;60.53;;
8562;SDS011;16392;52.508;13.468;2023-02-28T02:19:23;322.07;;;60.37;;
8562;SDS011;16392;52.508;13.468;2023-02-28T02:25:32;322.27;;;60.83;;
8562;SDS011;16392;52.508;13.468;2023-02-28T02:31:18;318.87;;;60.70;;
8562;SDS011;16392;52.508;13.468;2023-02-28T02:36:53;321.13;;;61.20;;
8562;SDS011;16392;52.508;13.468;2023-02-28T02:39:27;322.03;;;60.77;;
8562;SDS011;16392;52.508;13.468;2023-02-28T02:42:01;317.90;;;60.70;;
8562;SDS011;16392;52.508;13.468;2023-02-28T02:44:30;322.47;;;60.73;;
8562;SDS011;16392;52.508;13.468;2023-02-28T02:47:03;320.83;;;64.47;;
8562;SDS011;16392;52.508;13.468;2023-02-28T02:49:35;316.07;;;59.30;;
8562;SDS011;16392;52.508;13.468;2023-02-28T02:52:04;318.70;;;60.23;;
8562;SDS011;16392;52.508;13.468;2023-02-28T02:54:36;318.30;;;59.40;;
8562;SDS011;16392;52.508;13.468;2023-02-28T02:57:07;316.37;;;60.20;;
8562;SDS011;16392;52.508;13.468;2023-02-28T02:59:37;316.57;;;61.00;;
8562;SDS011;16392;52.508;13.468;2023-02-28T03:02:06;316.93;;;61.20;;
8562;SDS011;16392;52.508;13.468;2023-02-28T03:04:38;316.67;;;60.00;;
8562;SDS011;16392;52.508;13.468;2023-02-28T03:07:09;318.77;;;61.43;;
8562;SDS011;16392;52.508;13.468;2023-02-28T03:09:35;320.23;;;65.03;;
8562;SDS011;16392;52.508;13.468;2023-02-28T03:12:02;316.80;;;61.17;;
8562;SDS011;16392;52.508;13.468;2023-02-28T03:14:35;320.70;;;65.73;;
8562;SDS011;16392;52.508;13.468;2023-02-28T03:17:24;312.73;;;59.77;;
8562;SDS011;16392;52.508;13.468;2023-02-28T03:20:06;316.50;;;61.63;;
8562;SDS011;16392;52.508;13.468;2023-02-28T03:22:45;315.97;;;63.40;;
8562;SDS011;16392;52.508;13.468;2023-02-28T03:25:19;314.80;;;61.70;;
8562;SDS011;16392;52.508;13.468;2023-02-28T03:27:55;312.93;;;60.20;;
8562;SDS011;16392;52.508;13.468;2023-02-28T03:30:29;313.97;;;62.63;;
8562;SDS011;16392;52.508;13.468;2023-02-28T03:33:02;319.07;;;65.03;;
8562;SDS011;16392;52.508;13.468;2023-02-28T03:35:34;315.30;;;62.87;;
8562;SDS011;16392;52.508;13.468;2023-02-28T03:38:06;313.90;;;60.50;;
8562;SDS011;16392;52.508;13.468;2023-02-28T03:40:39;315.80;;;61.70;;
8562;SDS011;16392;52.508;13.468;2023-02-28T03:43:09;312.50;;;61.53;;
8562;SDS011;16392;52.508;13.468;2023-02-28T03:45:39;315.03;;;61.17;;
8562;SDS011;16392;52.508;13.468;2023-02-28T03:48:11;313.30;;;62.67;;
8562;SDS011;16392;52.508;13.468;2023-02-28T03:50:43;315.10;;;61.17;;
8562;SDS011;16392;52.508;13.468;2023-02-28T03:53:15;312.33;;;60.47;;
8562;SDS011;16392;52.508;13.468;2023-02-28T03:55:47;313.07;;;59.47;;
8562;SDS011;16392;52.508;13.468;2023-02-28T03:58:16;310.43;;;60.97;;
8562;SDS011;16392;52.508;13.468;2023-02-28T04:00:49;311.00;;;60.60;;
8562;SDS011;16392;52.508;13.468;2023-02-28T04:03:21;310.33;;;62.53;;
8562;SDS011;16392;52.508;13.468;2023-02-28T04:05:50;312.17;;;62.70;;
8562;SDS011;16392;52.508;13.468;2023-02-28T04:08:18;312.43;;;61.67;;
8562;SDS011;16392;52.508;13.468;2023-02-28T04:10:47;312.50;;;61.50;;
8562;SDS011;16392;52.508;13.468;2023-02-28T04:13:19;312.20;;;62.90;;
8562;SDS011;16392;52.508;13.468;2023-02-28T04:15:45;311.97;;;60.07;;
8562;SDS011;16392;52.508;13.468;2023-02-28T04:18:12;309.97;;;61.07;;
8562;SDS011;16392;52.508;13.468;2023-02-28T04:20:39;314.07;;;62.73;;
8562;SDS011;16392;52.508;13.468;2023-02-28T04:23:07;308.90;;;59.77;;
8562;SDS011;16392;52.508;13.468;2023-02-28T04:25:33;311.53;;;60.10;;
8562;SDS011;16392;52.508;13.468;2023-02-28T04:28:00;308.43;;;60.40;;
8562;SDS011;16392;52.508;13.468;2023-02-28T04:30:26;310.03;;;60.07;;
8562;SDS011;16392;52.508;13.468;2023-02-28T04:32:54;309.43;;;60.47;;
8562;SDS011;16392;52.508;13.468;2023-02-28T04:35:21;313.60;;;63.03;;
8562;SDS011;16392;52.508;13.468;2023-02-28T04:37:48;315.23;;;66.30;;
8562;SDS011;16392;52.508;13.468;2023-02-28T04:40:16;308.87;;;59.33;;
8562;SDS011;16392;52.508;13.468;2023-02-28T04:42:43;310.13;;;61.10;;
8562;SDS011;16392;52.508;13.468;2023-02-28T04:45:09;310.00;;;60.63;;
8562;SDS011;16392;52.508;13.468;2023-02-28T04:47:36;309.37;;;63.93;;
8562;SDS011;16392;52.508;13.468;2023-02-28T04:50:03;307.53;;;60.63;;
8562;SDS011;16392;52.508;13.468;2023-02-28T04:52:30;306.07;;;61.83;;
8562;SDS011;16392;52.508;13.468;2023-02-28T04:54:57;310.27;;;61.27;;
8562;SDS011;16392;52.508;13.468;2023-02-28T04:57:25;308.23;;;60.50;;
8562;SDS011;16392;52.508;13.468;2023-02-28T04:59:51;308.10;;;61.93;;
8562;SDS011;16392;52.508;13.468;2023-02-28T05:02:18;309.80;;;62.13;;
8562;SDS011;16392;52.508;13.468;2023-02-28T05:04:46;303.87;;;59.23;;
8562;SDS011;16392;52.508;13.468;2023-02-28T05:07:12;307.20;;;61.97;;
8562;SDS011;16392;52.508;13.468;2023-02-28T05:09:39;306.20;;;60.00;;
8562;SDS011;16392;52.508;13.468;2023-02-28T05:12:06;304.53;;;60.53;;
8562;SDS011;16392;52.508;13.468;2023-02-28T05:14:35;304.90;;;59.97;;
8562;SDS011;16392;52.508;13.468;2023-02-28T05:17:02;305.63;;;62.27;;
8562;SDS011;16392;52.508;13.468;2023-02-28T05:19:29;304.10;;;59.57;;
8562;SDS011;16392;52.508;13.468;2023-02-28T05:21:55;305.87;;;61.43;;
8562;SDS011;16392;52.508;13.468;2023-02-28T05:24:22;302.30;;;59.27;;
8562;SDS011;16392;52.508;13.468;2023-02-28T05:26:49;302.97;;;60.60;;
8562;SDS011;16392;52.508;13.468;2023-02-28T05:29:18;304.57;;;61.07;;
8562;SDS011;16392;52.508;13.468;2023-02-28T05:31:46;306.27;;;62.23;;
8562;SDS011;16392;52.508;13.468;2023-02-28T05:34:13;306.50;;;62.47;;
8562;SDS011;16392;52.508;13.468;2023-02-28T05:36:41;303.67;;;59.33;;
8562;SDS011;16392;52.508;13.468;2023-02-28T05:39:08;304.03;;;60.80;;
8562;SDS011;16392;52.508;13.468;2023-02-28T05:41:38;303.87;;;61.40;;
8562;SDS011;16392;52.508;13.468;2023-02-28T05:44:06;303.73;;;59.40;;
8562;SDS011;16392;52.508;13.468;2023-02-28T05:46:32;303.67;;;59.93;;
8562;SDS011;16392;52.508;13.468;2023-02-28T05:49:00;305.77;;;61.77;;
8562;SDS011;16392;52.508;13.468;2023-02-28T05:51:27;304.13;;;60.60;;
8562;SDS011;16392;52.508;13.468;2023-02-28T05:53:54;305.60;;;61.30;;
8562;SDS011;16392;52.508;13.468;2023-02-28T05:56:21;305.07;;;61.13;;
8562;SDS011;16392;52.508;13.468;2023-02-28T05:58:48;304.23;;;60.00;;
8562;SDS011;16392;52.508;13.468;2023-02-28T06:01:22;308.17;;;62.37;;
8562;SDS011;16392;52.508;13.468;2023-02-28T06:03:56;309.90;;;63.03;;
8562;SDS011;16392;52.508;13.468;2023-02-28T06:06:25;306.73;;;59.20;;
8562;SDS011;16392;52.508;13.468;2023-02-28T06:08:52;308.80;;;61.67;;
8562;SDS011;16392;52.508;13.468;2023-02-28T06:11:19;309.23;;;60.60;;
8562;SDS011;16392;52.508;13.468;2023-02-28T06:13:46;311.90;;;60.57;;
8562;SDS011;16392;52.508;13.468;2023-02-28T06:16:12;312.50;;;60.70;;
8562;SDS011;16392;52.508;13.468;2023-02-28T06:18:39;318.73;;;60.50;;
8562;SDS011;16392;52.508;13.468;2023-02-28T06:21:05;319.67;;;61.33;;
8562;SDS011;16392;52.508;13.468;2023-02-28T06:23:35;322.17;;;61.93;;
8562;SDS011;16392;52.508;13.468;2023-02-28T06:26:01;326.43;;;63.40;;
8562;SDS011;16392;52.508;13.468;2023-02-28T06:28:28;331.57;;;62.80;;
8562;SDS011;16392;52.508;13.468;2023-02-28T06:30:55;338.93;;;63.50;;
8562;SDS011;16392;52.508;13.468;2023-02-28T06:33:22;341.60;;;64.87;;
8562;SDS011;16392;52.508;13.468;2023-02-28T06:35:49;343.17;;;63.07;;
8562;SDS011;16392;52.508;13.468;2023-02-28T06:38:17;350.87;;;63.33;;
8562;SDS011;16392;52.508;13.468;2023-02-28T06:40:48;352.63;;;65.10;;
8562;SDS011;16392;52.508;13.468;2023-02-28T06:43:19;354.80;;;65.43;;
8562;SDS011;16392;52.508;13.468;2023-02-28T06:45:46;360.17;;;65.80;;
8562;SDS011;16392;52.508;13.468;2023-02-28T06:48:12;369.20;;;68.03;;
8562;SDS011;16392;52.508;13.468;2023-02-28T06:50:39;369.70;;;67.97;;
8562;SDS011;16392;52.508;13.468;2023-02-28T06:53:05;373.23;;;69.33;;
8562;SDS011;16392;52.508;13.468;2023-02-28T06:55:32;377.73;;;70.33;;
8562;SDS011;16392;52.508;13.468;2023-02-28T06:58:00;382.57;;;71.17;;
8562;SDS011;16392;52.508;13.468;2023-02-28T07:00:27;385.50;;;72.63;;
8562;SDS011;16392;52.508;13.468;2023-02-28T07:02:53;382.93;;;71.77;;
8562;SDS011;16392;52.508;13.468;2023-02-28T07:05:20;389.73;;;74.87;;
8562;SDS011;16392;52.508;13.468;2023-02-28T07:07:47;392.07;;;74.97;;
8562;SDS011;16392;52.508;13.468;2023-02-28T07:10:13;398.47;;;76.70;;
8562;SDS011;16392;52.508;13.468;2023-02-28T07:12:42;400.87;;;79.60;;
8562;SDS011;16392;52.508;13.468;2023-02-28T07:15:10;404.17;;;79.37;;
8562;SDS011;16392;52.508;13.468;2023-02-28T07:17:37;406.00;;;81.60;;
8562;SDS011;16392;52.508;13.468;2023-02-28T07:20:04;408.00;;;87.50;;
8562;SDS011;16392;52.508;13.468;2023-02-28T07:22:31;406.73;;;82.00;;
8562;SDS011;16392;52.508;13.468;2023-02-28T07:24:58;404.73;;;78.23;;
8562;SDS011;16392;52.508;13.468;2023-02-28T07:27:24;407.80;;;76.97;;
8562;SDS011;16392;52.508;13.468;2023-02-28T07:29:51;408.97;;;82.33;;
8562;SDS011;16392;52.508;13.468;2023-02-28T07:32:21;409.13;;;82.60;;
8562;SDS011;16392;52.508;13.468;2023-02-28T07:34:48;408.87;;;83.30;;
8562;SDS011;16392;52.508;13.468;2023-02-28T07:37:14;413.37;;;86.07;;
8562;SDS011;16392;52.508;13.468;2023-02-28T07:39:41;417.80;;;84.13;;
8562;SDS011;16392;52.508;13.468;2023-02-28T07:42:08;416.70;;;88.03;;
8562;SDS011;16392;52.508;13.468;2023-02-28T07:44:37;433.90;;;137.87;;
8562;SDS011;16392;52.508;13.468;2023-02-28T07:47:07;418.02;;;95.55;;
8562;SDS011;16392;52.508;13.468;2023-02-28T07:49:35;415.43;;;86.60;;
8562;SDS011;16392;52.508;13.468;2023-02-28T07:52:02;417.37;;;88.47;;
8562;SDS011;16392;52.508;13.468;2023-02-28T07:54:30;413.73;;;84.47;;
8562;SDS011;16392;52.508;13.468;2023-02-28T07:56:56;416.13;;;89.27;;
8562;SDS011;16392;52.508;13.468;2023-02-28T07:59:23;413.53;;;84.43;;
8562;SDS011;16392;52.508;13.468;2023-02-28T08:01:50;416.43;;;85.93;;
8562;SDS011;16392;52.508;13.468;2023-02-28T08:04:16;419.77;;;96.97;;
8562;SDS011;16392;52.508;13.468;2023-02-28T08:06:46;411.33;;;85.70;;
8562;SDS011;16392;52.508;13.468;2023-02-28T08:09:12;415.07;;;89.10;;
8562;SDS011;16392;52.508;13.468;2023-02-28T08:11:39;415.30;;;87.40;;
8562;SDS011;16392;52.508;13.468;2023-02-28T08:14:06;410.37;;;82.57;;
8562;SDS011;16392;52.508;13.468;2023-02-28T08:16:32;409.80;;;86.17;;
8562;SDS011;16392;52.508;13.468;2023-02-28T08:18:59;406.17;;;80.27;;
8562;SDS011;16392;52.508;13.468;2023-02-28T08:21:26;403.73;;;80.03;;
8562;SDS011;16392;52.508;13.468;2023-02-28T08:23:53;405.63;;;85.00;;
8562;SDS011;16392;52.508;13.468;2023-02-28T08:26:21;410.20;;;95.53;;
8562;SDS011;16392;52.508;13.468;2023-02-28T08:28:49;404.03;;;78.63;;
8562;SDS011;16392;52.508;13.468;2023-02-28T08:31:16;402.73;;;80.43;;
8562;SDS011;16392;52.508;13.468;2023-02-28T08:33:43;399.97;;;78.50;;
8562;SDS011;16392;52.508;13.468;2023-02-28T08:36:10;404.07;;;84.00;;
8562;SDS011;16392;52.508;13.468;2023-02-28T08:38:37;403.97;;;83.87;;
8562;SDS011;16392;52.508;13.468;2023-02-28T08:41:06;405.27;;;82.13;;
8562;SDS011;16392;52.508;13.468;2023-02-28T08:43:34;404.20;;;78.17;;
8562;SDS011;16392;52.508;13.468;2023-02-28T08:46:01;407.83;;;83.50;;
8562;SDS011;16392;52.508;13.468;2023-02-28T08:48:29;405.93;;;82.13;;
8562;SDS011;16392;52.508;13.468;2023-02-28T08:50:57;406.50;;;80.57;;
8562;SDS011;16392;52.508;13.468;2023-02-28T08:53:24;404.30;;;79.70;;
8562;SDS011;16392;52.508;13.468;2023-02-28T08:55:57;404.08;;;80.15;;
8562;SDS011;16392;52.508;13.468;2023-02-28T08:58:27;406.40;;;81.35;;
8562;SDS011;16392;52.508;13.468;2023-02-28T09:00:54;410.63;;;87.90;;
8562;SDS011;16392;52.508;13.468;2023-02-28T09:03:21;403.57;;;79.20;;
8562;SDS011;16392;52.508;13.468;2023-02-28T09:05:52;409.73;;;86.57;;
8562;SDS011;16392;52.508;13.468;2023-02-28T09:08:20;406.93;;;80.33;;
8562;SDS011;16392;52.508;13.468;2023-02-28T09:10:46;404.30;;;82.90;;
8562;SDS011;16392;52.508;13.468;2023-02-28T09:13:13;404.90;;;85.60;;
8562;SDS011;16392;52.508;13.468;2023-02-28T09:15:41;407.67;;;83.37;;
8562;SDS011;16392;52.508;13.468;2023-02-28T09:18:07;405.67;;;82.10;;
8562;SDS011;16392;52.508;13.468;2023-02-28T09:20:36;403.30;;;80.77;;
8562;SDS011;16392;52.508;13.468;2023-02-28T09:23:03;406.65;;;84.95;;
8562;SDS011;16392;52.508;13.468;2023-02-28T09:25:30;404.17;;;81.03;;
8562;SDS011;16392;52.508;13.468;2023-02-28T09:27:57;402.67;;;78.73;;
8562;SDS011;16392;52.508;13.468;2023-02-28T09:30:23;397.47;;;75.50;;
8562;SDS011;16392;52.508;13.468;2023-02-28T09:32:51;397.70;;;76.83;;
8562;SDS011;16392;52.508;13.468;2023-02-28T09:35:18;396.53;;;78.70;;
8562;SDS011;16392;52.508;13.468;2023-02-28T09:37:46;397.97;;;75.70;;
8562;SDS011;16392;52.508;13.468;2023-02-28T09:40:13;398.30;;;78.87;;
8562;SDS011;16392;52.508;13.468;2023-02-28T09:42:42;397.40;;;77.10;;
8562;SDS011;16392;52.508;13.468;2023-02-28T09:45:13;399.87;;;79.20;;
8562;SDS011;16392;52.508;13.468;2023-02-28T09:47:46;397.43;;;77.77;;
8562;SDS011;16392;52.508;13.468;2023-02-28T09:50:20;394.97;;;76.30;;
8562;SDS011;16392;52.508;13.468;2023-02-28T09:52:56;395.93;;;76.50;;
8562;SDS011;16392;52.508;13.468;2023-02-28T09:55:25;396.63;;;76.23;;
8562;SDS011;16392;52.508;13.468;2023-02-28T09:57:56;398.53;;;76.70;;
8562;SDS011;16392;52.508;13.468;2023-02-28T10:00:27;398.83;;;80.47;;
8562;SDS011;16392;52.508;13.468;2023-02-28T10:03:06;395.97;;;79.67;;
8562;SDS011;16392;52.508;13.468;2023-02-28T10:05:50;396.57;;;79.57;;
8562;SDS011;16392;52.508;13.468;2023-02-28T10:08:21;397.30;;;78.63;;
8562;SDS011;16392;52.508;13.468;2023-02-28T10:10:53;394.13;;;74.77;;
8562;SDS011;16392;52.508;13.468;2023-02-28T10:13:23;394.17;;;77.00;;
8562;SDS011;16392;52.508;13.468;2023-02-28T10:15:57;393.90;;;75.50;;
8562;SDS011;16392;52.508;13.468;2023-02-28T10:18:29;391.87;;;77.43;;
8562;SDS011;16392;52.508;13.468;2023-02-28T10:21:04;396.73;;;83.30;;
8562;SDS011;16392;52.508;13.468;2023-02-28T10:23:32;393.43;;;74.73;;
8562;SDS011;16392;52.508;13.468;2023-02-28T10:26:05;397.40;;;79.40;;
8562;SDS011;16392;52.508;13.468;2023-02-28T10:28:38;393.57;;;74.77;;
8562;SDS011;16392;52.508;13.468;2023-02-28T10:31:05;394.77;;;80.27;;
8562;SDS011;16392;52.508;13.468;2023-02-28T10:33:36;393.10;;;77.17;;
8562;SDS011;16392;52.508;13.468;2023-02-28T10:36:08;391.43;;;73.20;;
8562;SDS011;16392;52.508;13.468;2023-02-28T10:38:42;390.90;;;73.60;;
8562;SDS011;16392;52.508;13.468;2023-02-28T10:41:10;391.00;;;75.77;;
8562;SDS011;16392;52.508;13.468;2023-02-28T10:43:39;395.37;;;78.87;;
8562;SDS011;16392;52.508;13.468;2023-02-28T10:46:12;395.13;;;78.97;;
8562;SDS011;16392;52.508;13.468;2023-02-28T10:48:59;395.67;;;77.37;;
8562;SDS011;16392;52.508;13.468;2023-02-28T10:51:36;394.13;;;76.17;;
8562;SDS011;16392;52.508;13.468;2023-02-28T10:54:04;399.23;;;78.63;;
8562;SDS011;16392;52.508;13.468;2023-02-28T10:56:31;401.55;;;79.00;;
8562;SDS011;16392;52.508;13.468;2023-02-28T10:58:59;400.93;;;80.63;;
8562;SDS011;16392;52.508;13.468;2023-02-28T11:01:36;399.93;;;80.83;;
8562;SDS011;16392;52.508;13.468;2023-02-28T11:04:16;395.23;;;76.23;;
8562;SDS011;16392;52.508;13.468;2023-02-28T11:06:47;396.37;;;80.67;;
8562;SDS011;16392;52.508;13.468;2023-02-28T11:09:23;393.10;;;76.23;;
8562;SDS011;16392;52.508;13.468;2023-02-28T11:11:55;397.23;;;76.97;;
8562;SDS011;16392;52.508;13.468;2023-02-28T11:14:22;399.37;;;80.10;;
8562;SDS011;16392;52.508;13.468;2023-02-28T11:16:51;406.53;;;95.07;;
8562;SDS011;16392;52.508;13.468;2023-02-28T11:19:20;403.40;;;89.30;;
8562;SDS011;16392;52.508;13.468;2023-02-28T11:21:54;400.13;;;80.50;;
8562;SDS011;16392;52.508;13.468;2023-02-28T11:24:24;406.23;;;78.97;;
8562;SDS011;16392;52.508;13.468;2023-02-28T11:26:53;397.27;;;77.90;;
8562;SDS011;16392;52.508;13.468;2023-02-28T11:29:21;397.70;;;79.47;;
8562;SDS011;16392;52.508;13.468;2023-02-28T11:32:07;397.50;;;81.47;;
8562;SDS011;16392;52.508;13.468;2023-02-28T11:34:40;402.60;;;91.77;;
8562;SDS011;16392;52.508;13.468;2023-02-28T11:37:11;394.63;;;76.47;;
8562;SDS011;16392;52.508;13.468;2023-02-28T11:39:40;393.67;;;76.50;;
8562;SDS011;16392;52.508;13.468;2023-02-28T11:42:14;393.90;;;77.03;;
8562;SDS011;16392;52.508;13.468;2023-02-28T11:44:55;390.63;;;73.83;;
8562;SDS011;16392;52.508;13.468;2023-02-28T11:47:32;390.57;;;76.20;;
8562;SDS011;16392;52.508;13.468;2023-02-28T11:50:15;393.40;;;85.70;;
8562;SDS011;16392;52.508;13.468;2023-02-28T11:52:50;392.57;;;80.77;;
8562;SDS011;16392;52.508;13.468;2023-02-28T11:55:19;389.87;;;76.83;;
8562;SDS011;16392;52.508;13.468;2023-02-28T11:57:56;387.47;;;72.23;;
8562;SDS011;16392;52.508;13.468;2023-02-28T12:00:53;388.50;;;73.37;;
8562;SDS011;16392;52.508;13.468;2023-02-28T12:03:40;385.97;;;70.67;;
8562;SDS011;16392;52.508;13.468;2023-02-28T12:06:18;384.60;;;72.97;;
8562;SDS011;16392;52.508;13.468;2023-02-28T12:08:56;386.03;;;74.87;;
8562;SDS011;16392;52.508;13.468;2023-02-28T12:11:33;385.57;;;75.43;;
8562;SDS011;16392;52.508;13.468;2023-02-28T12:17:03;383.30;;;73.67;;
8562;SDS011;16392;52.508;13.468;2023-02-28T12:19:43;386.27;;;78.87;;
8562;SDS011;16392;52.508;13.468;2023-02-28T12:22:22;390.50;;;86.17;;
8562;SDS011;16392;52.508;13.468;2023-02-28T12:25:16;385.70;;;77.90;;
8562;SDS011;16392;52.508;13.468;2023-02-28T12:27:48;382.13;;;72.00;;
8562;SDS011;16392;52.508;13.468;2023-02-28T12:30:19;384.47;;;76.80;;
8562;SDS011;16392;52.508;13.468;2023-02-28T12:32:51;382.50;;;73.67;;
8562;SDS011;16392;52.508;13.468;2023-02-28T12:35:22;383.77;;;74.03;;
8562;SDS011;16392;52.508;13.468;2023-02-28T12:37:54;383.57;;;73.33;;
8562;SDS011;16392;52.508;13.468;2023-02-28T12:40:27;379.47;;;73.10;;
8562;SDS011;16392;52.508;13.468;2023-02-28T12:43:01;383.13;;;72.77;;
8562;SDS011;16392;52.508;13.468;2023-02-28T12:45:36;377.07;;;69.30;;
8562;SDS011;16392;52.508;13.468;2023-02-28T12:48:08;389.73;;;77.93;;
8562;SDS011;16392;52.508;13.468;2023-02-28T12:50:40;382.67;;;73.73;;
8562;SDS011;16392;52.508;13.468;2023-02-28T12:53:09;379.87;;;71.40;;
8562;SDS011;16392;52.508;13.468;2023-02-28T12:55:42;389.30;;;89.13;;
8562;SDS011;16392;52.508;13.468;2023-02-28T12:58:14;386.27;;;74.53;;
8562;SDS011;16392;52.508;13.468;2023-02-28T13:00:49;382.03;;;72.33;;
8562;SDS011;16392;52.508;13.468;2023-02-28T13:03:35;383.33;;;72.97;;
8562;SDS011;16392;52.508;13.468;2023-02-28T13:09:04;376.90;;;69.10;;
8562;SDS011;16392;52.508;13.468;2023-02-28T13:11:39;383.47;;;72.50;;
8562;SDS011;16392;52.508;13.468;2023-02-28T13:14:16;384.57;;;72.00;;
8562;SDS011;16392;52.508;13.468;2023-02-28T13:16:50;385.40;;;72.63;;
8562;SDS011;16392;52.508;13.468;2023-02-28T13:19:22;389.23;;;84.90;;
8562;SDS011;16392;52.508;13.468;2023-02-28T13:21:51;389.77;;;75.27;;
8562;SDS011;16392;52.508;13.468;2023-02-28T13:31:03;392.50;;;75.60;;
8562;SDS011;16392;52.508;13.468;2023-02-28T13:33:24;396.07;;;81.17;;
8562;SDS011;16392;52.508;13.468;2023-02-28T13:36:07;397.27;;;90.63;;
8562;SDS011;16392;52.508;13.468;2023-02-28T13:38:49;391.20;;;78.30;;
8562;SDS011;16392;52.508;13.468;2023-02-28T13:44:12;392.20;;;78.10;;
8562;SDS011;16392;52.508;13.468;2023-02-28T13:49:44;393.93;;;82.33;;
8562;SDS011;16392;52.508;13.468;2023-02-28T13:52:12;393.17;;;77.17;;
8562;SDS011;16392;52.508;13.468;2023-02-28T13:54:50;395.77;;;78.50;;
8562;SDS011;16392;52.508;13.468;2023-02-28T13:57:23;394.33;;;76.10;;
8562;SDS011;16392;52.508;13.468;2023-02-28T14:00:00;399.33;;;88.60;;
8562;SDS011;16392;52.508;13.468;2023-02-28T14:02:50;394.13;;;83.07;;
8562;SDS011;16392;52.508;13.468;2023-02-28T14:05:27;388.73;;;75.13;;
8562;SDS011;16392;52.508;13.468;2023-02-28T14:07:57;388.07;;;76.67;;
8562;SDS011;16392;52.508;13.468;2023-02-28T14:10:26;387.27;;;76.97;;
8562;SDS011;16392;52.508;13.468;2023-02-28T14:12:58;379.70;;;71.10;;
8562;SDS011;16392;52.508;13.468;2023-02-28T14:15:30;380.93;;;73.17;;
8562;SDS011;16392;52.508;13.468;2023-02-28T14:18:05;379.93;;;72.83;;
8562;SDS011;16392;52.508;13.468;2023-02-28T14:20:40;379.60;;;75.80;;
8562;SDS011;16392;52.508;13.468;2023-02-28T14:23:10;374.07;;;68.40;;
8562;SDS011;16392;52.508;13.468;2023-02-28T14:25:43;377.27;;;70.57;;
8562;SDS011;16392;52.508;13.468;2023-02-28T14:28:18;383.00;;;80.70;;
8562;SDS011;16392;52.508;13.468;2023-02-28T14:30:56;373.20;;;69.93;;
8562;SDS011;16392;52.508;13.468;2023-02-28T14:36:18;373.27;;;69.70;;
8562;SDS011;16392;52.508;13.468;2023-02-28T14:38:50;374.80;;;70.43;;
8562;SDS011;16392;52.508;13.468;2023-02-28T14:41:20;375.43;;;72.97;;
8562;SDS011;16392;52.508;13.468;2023-02-28T14:44:00;371.57;;;71.37;;
8562;SDS011;16392;52.508;13.468;2023-02-28T14:46:33;376.97;;;75.80;;
8562;SDS011;16392;52.508;13.468;2023-02-28T14:49:03;373.07;;;72.27;;
8562;SDS011;16392;52.508;13.468;2023-02-28T14:51:30;371.37;;;70.47;;
8562;SDS011;16392;52.508;13.468;2023-02-28T14:53:58;370.83;;;69.43;;
8562;SDS011;16392;52.508;13.468;2023-02-28T14:56:27;368.97;;;71.43;;